Time;durP1;ratioP1;P1;durP2;ratioP2;P2;SDS_P1;SDS_P2;PMS_P1;PMS_P2;Temp;Humidity;BMP_temperature;BMP_pressure;BME280_temperature;BME280_humidity;BME280_pressure;Samples;Min_cycle;Max_cycle;Signal;HPM_P1;HPM_P2
2021/11/05 00:02:20;;;;;;;0.10;0.10;;;5.10;99.90;;;;;;5026122;28;20222;-75
2021/11/05 00:04:46;;;;;;;0.57;0.57;;;5.10;99.90;;;;;;5011108;28;20198;-75
2021/11/05 00:07:12;;;;;;;0.20;0.20;;;5.10;99.90;;;;;;5011153;28;20222;-76
2021/11/05 00:09:40;;;;;;;0.15;0.15;;;5.00;99.90;;;;;;5011204;28;20163;-75
2021/11/05 00:12:06;;;;;;;0.10;0.10;;;5.00;99.90;;;;;;5011167;28;20246;-75
2021/11/05 00:14:33;;;;;;;0.30;0.30;;;5.10;99.90;;;;;;5025983;28;20680;-76
2021/11/05 00:16:58;;;;;;;0.08;0.08;;;5.10;99.90;;;;;;5011041;28;20214;-75
2021/11/05 00:19:25;;;;;;;0.40;0.40;;;5.10;99.90;;;;;;5011003;28;20209;-75
2021/11/05 00:21:51;;;;;;;0.75;0.75;;;5.10;99.90;;;;;;5029142;28;20166;-75
2021/11/05 00:24:16;;;;;;;0.47;0.47;;;5.10;99.90;;;;;;5030513;28;20204;-75
2021/11/05 00:26:42;;;;;;;0.70;0.70;;;5.10;99.90;;;;;;5030510;28;20197;-76
2021/11/05 00:29:08;;;;;;;0.20;0.20;;;5.10;99.90;;;;;;5025688;28;20191;-75
2021/11/05 00:31:34;;;;;;;0.20;0.20;;;5.10;99.90;;;;;;5025766;28;20174;-75
2021/11/05 00:34:00;;;;;;;0.70;0.70;;;5.10;99.90;;;;;;5009576;28;20207;-75
2021/11/05 00:36:26;;;;;;;0.15;0.15;;;5.10;99.90;;;;;;5010686;28;20162;-75
2021/11/05 00:38:52;;;;;;;0.10;0.10;;;5.00;99.90;;;;;;5010815;28;20163;-75
2021/11/05 00:41:18;;;;;;;0.20;0.20;;;5.00;99.90;;;;;;5009264;28;20182;-75
2021/11/05 00:43:44;;;;;;;1.45;1.35;;;5.00;99.90;;;;;;5010494;28;20655;-75
2021/11/05 00:46:10;;;;;;;0.85;0.85;;;5.00;99.90;;;;;;5010612;28;20163;-75
2021/11/05 00:48:35;;;;;;;0.10;0.10;;;5.10;99.90;;;;;;5010475;28;20170;-76
2021/11/05 00:51:01;;;;;;;1.40;1.38;;;5.10;99.90;;;;;;5025461;28;20198;-76
2021/11/05 00:53:27;;;;;;;0.13;0.13;;;5.10;99.90;;;;;;5010208;28;20707;-77
2021/11/05 00:56:01;;;;;;;0.20;0.20;;;5.20;99.90;;;;;;5086484;28;20580;-76
2021/11/05 00:58:26;;;;;;;0.28;0.28;;;5.20;99.90;;;;;;5086440;28;20171;-75
2021/11/05 01:00:52;;;;;;;0.10;0.10;;;5.20;99.90;;;;;;5086447;28;20164;-76
2021/11/05 01:03:18;;;;;;;0.10;0.10;;;5.10;99.90;;;;;;5086435;28;20149;-75
2021/11/05 01:05:44;;;;;;;0.10;0.10;;;5.10;99.90;;;;;;5086142;28;20195;-76
2021/11/05 01:08:12;;;;;;;0.10;0.10;;;5.10;99.90;;;;;;5086335;28;20198;-76
2021/11/05 01:10:38;;;;;;;0.10;0.10;;;5.10;99.90;;;;;;5086141;28;20149;-77
2021/11/05 01:13:05;;;;;;;0.20;0.20;;;5.10;99.90;;;;;;5085974;28;20175;-76
2021/11/05 01:15:32;;;;;;;0.10;0.10;;;5.10;99.90;;;;;;5084717;28;20211;-76
2021/11/05 01:17:58;;;;;;;0.30;0.30;;;5.10;99.90;;;;;;5084820;28;20179;-76
2021/11/05 01:20:25;;;;;;;0.10;0.10;;;5.10;99.90;;;;;;5084674;28;20235;-76
2021/11/05 01:22:51;;;;;;;0.10;0.10;;;5.20;99.90;;;;;;5084603;28;20164;-76
2021/11/05 01:25:18;;;;;;;0.00;0.00;;;5.20;99.90;;;;;;5085966;28;20191;-76
2021/11/05 01:27:47;;;;;;;0.47;0.47;;;5.20;99.90;;;;;;5085769;28;20230;-76
2021/11/05 01:30:14;;;;;;;0.20;0.20;;;5.20;99.90;;;;;;5085868;28;20166;-78
2021/11/05 01:32:41;;;;;;;0.05;0.05;;;5.30;99.90;;;;;;5084571;28;20173;-78
2021/11/05 01:35:08;;;;;;;0.35;0.35;;;5.30;99.90;;;;;;5085595;28;20207;-78
2021/11/05 01:37:35;;;;;;;0.98;0.98;;;5.30;99.90;;;;;;5085601;28;20186;-78
2021/11/05 01:40:01;;;;;;;1.17;1.00;;;5.30;99.90;;;;;;5085646;28;20165;-76
2021/11/05 01:42:26;;;;;;;1.08;1.05;;;5.40;99.90;;;;;;5085553;28;20160;-78
2021/11/05 01:44:53;;;;;;;0.10;0.10;;;5.40;99.90;;;;;;5084665;28;20210;-79
2021/11/05 01:47:19;;;;;;;0.17;0.17;;;5.40;99.90;;;;;;5084049;28;20203;-77
2021/11/05 01:49:46;;;;;;;0.10;0.10;;;5.40;99.90;;;;;;5083248;28;20267;-79
2021/11/05 01:52:14;;;;;;;0.30;0.30;;;5.40;99.90;;;;;;5085301;28;20171;-78
2021/11/05 01:54:40;;;;;;;0.10;0.10;;;5.30;99.90;;;;;;5083840;28;20720;-78
2021/11/05 01:57:07;;;;;;;0.05;0.05;;;5.40;99.90;;;;;;5085130;28;20238;-77
2021/11/05 01:59:35;;;;;;;0.10;0.10;;;5.30;99.90;;;;;;5083921;28;20179;-76
2021/11/05 02:02:04;;;;;;;0.10;0.10;;;5.30;99.90;;;;;;5084006;28;20172;-77
2021/11/05 02:04:30;;;;;;;0.10;0.10;;;5.30;99.90;;;;;;5085160;28;20157;-77
2021/11/05 02:06:57;;;;;;;0.10;0.10;;;5.30;99.90;;;;;;5074302;28;20219;-76
2021/11/05 02:09:25;;;;;;;0.10;0.10;;;5.30;99.90;;;;;;5071820;28;20164;-76
2021/11/05 02:11:55;;;;;;;0.10;0.10;;;5.20;99.90;;;;;;5071895;28;20164;-76
2021/11/05 02:14:23;;;;;;;0.10;0.10;;;5.30;99.90;;;;;;5071752;28;20196;-76
2021/11/05 02:16:54;;;;;;;0.10;0.10;;;5.30;99.90;;;;;;5070362;28;20729;-76
2021/11/05 02:19:22;;;;;;;0.30;0.30;;;5.30;99.90;;;;;;5070263;28;20164;-76
2021/11/05 02:21:51;;;;;;;0.28;0.28;;;5.30;99.90;;;;;;5070253;28;20248;-76
2021/11/05 02:24:17;;;;;;;0.10;0.10;;;5.30;99.90;;;;;;5071564;28;20562;-76
2021/11/05 02:26:44;;;;;;;0.10;0.10;;;5.40;99.90;;;;;;5071509;28;20203;-76
2021/11/05 02:29:11;;;;;;;0.00;0.00;;;5.50;99.90;;;;;;5070082;28;20248;-77
2021/11/05 02:31:37;;;;;;;0.00;0.00;;;5.40;99.90;;;;;;5071594;28;20165;-77
2021/11/05 02:34:04;;;;;;;0.10;0.10;;;5.40;99.90;;;;;;5069914;28;20192;-77
2021/11/05 02:36:30;;;;;;;0.10;0.10;;;5.40;99.90;;;;;;5069962;28;20199;-77
2021/11/05 02:38:56;;;;;;;0.08;0.08;;;5.30;99.90;;;;;;5070027;28;20165;-77
2021/11/05 02:41:23;;;;;;;0.10;0.10;;;5.20;99.90;;;;;;5069946;28;20173;-78
2021/11/05 02:43:50;;;;;;;0.30;0.30;;;5.30;99.90;;;;;;5071264;28;20255;-77
2021/11/05 02:46:16;;;;;;;0.45;0.45;;;5.30;99.90;;;;;;5069765;28;20288;-77
2021/11/05 02:48:42;;;;;;;0.20;0.20;;;5.30;99.90;;;;;;5071069;28;20218;-77
2021/11/05 02:51:10;;;;;;;0.10;0.10;;;5.30;99.90;;;;;;5071091;28;20188;-77
2021/11/05 02:53:39;;;;;;;0.10;0.10;;;5.30;99.90;;;;;;5070664;28;20168;-77
2021/11/05 02:56:06;;;;;;;0.38;0.38;;;5.30;99.90;;;;;;5071087;28;20326;-78
2021/11/05 02:58:33;;;;;;;0.08;0.08;;;5.30;99.90;;;;;;5069628;28;20173;-77
2021/11/05 03:00:59;;;;;;;0.43;0.43;;;5.30;99.90;;;;;;5069731;28;20210;-78
2021/11/05 03:03:26;;;;;;;0.10;0.10;;;5.20;99.90;;;;;;5070808;28;20228;-78
2021/11/05 03:05:53;;;;;;;0.55;0.55;;;5.20;99.90;;;;;;5069190;28;20187;-78
2021/11/05 03:08:20;;;;;;;0.30;0.30;;;5.20;99.90;;;;;;5070630;28;20179;-77
2021/11/05 03:10:46;;;;;;;0.20;0.20;;;5.30;99.90;;;;;;5070680;28;20251;-77
2021/11/05 03:13:13;;;;;;;0.20;0.20;;;5.30;99.90;;;;;;5070357;28;20176;-77
2021/11/05 03:15:38;;;;;;;0.70;0.57;;;5.30;99.90;;;;;;5069087;28;20554;-77
2021/11/05 03:18:04;;;;;;;1.65;0.70;;;5.40;99.90;;;;;;5068082;28;20187;-77
2021/11/05 03:20:30;;;;;;;0.10;0.10;;;5.40;99.90;;;;;;5069039;28;20167;-76
2021/11/05 03:22:57;;;;;;;1.13;1.08;;;5.40;99.90;;;;;;5070197;28;20578;-76
2021/11/05 03:25:22;;;;;;;0.63;0.63;;;5.40;99.90;;;;;;5068879;28;20184;-76
2021/11/05 03:27:48;;;;;;;0.30;0.30;;;5.30;99.90;;;;;;5069637;28;20219;-76
2021/11/05 03:30:17;;;;;;;0.10;0.10;;;5.30;99.90;;;;;;5050144;28;20518;-77
2021/11/05 03:32:43;;;;;;;0.10;0.10;;;5.40;99.90;;;;;;5050016;28;20161;-76
2021/11/05 03:35:10;;;;;;;1.35;0.85;;;5.40;99.90;;;;;;5049929;28;20215;-76
2021/11/05 03:37:36;;;;;;;0.10;0.10;;;5.30;99.90;;;;;;5049845;28;20193;-76
2021/11/05 03:40:05;;;;;;;0.00;0.00;;;5.30;99.90;;;;;;5049880;28;20159;-76
2021/11/05 03:42:32;;;;;;;0.08;0.08;;;5.30;99.90;;;;;;5048423;28;20200;-76
2021/11/05 03:44:58;;;;;;;0.20;0.20;;;5.30;99.90;;;;;;5048268;28;20264;-76
2021/11/05 03:47:24;;;;;;;0.10;0.10;;;5.30;99.90;;;;;;5049738;28;20192;-76
2021/11/05 03:49:50;;;;;;;0.10;0.10;;;5.40;99.90;;;;;;5049640;28;20161;-78
2021/11/05 03:52:16;;;;;;;0.32;0.32;;;5.60;99.90;;;;;;5049676;28;20618;-76
2021/11/05 03:54:43;;;;;;;0.10;0.10;;;5.60;99.90;;;;;;5049305;28;20217;-76
2021/11/05 03:57:10;;;;;;;0.15;0.15;;;5.60;99.90;;;;;;5049447;28;20193;-76
2021/11/05 03:59:37;;;;;;;0.28;0.28;;;5.40;99.90;;;;;;5049398;28;20162;-76
2021/11/05 04:02:03;;;;;;;0.20;0.20;;;5.40;99.90;;;;;;5049465;28;20161;-75
2021/11/05 04:04:29;;;;;;;0.05;0.05;;;5.40;99.90;;;;;;5049551;28;20185;-76
2021/11/05 04:06:55;;;;;;;0.15;0.15;;;5.50;99.90;;;;;;5047917;28;20274;-76
2021/11/05 04:09:21;;;;;;;0.10;0.10;;;5.50;99.90;;;;;;5048002;28;20174;-75
2021/11/05 04:11:48;;;;;;;0.20;0.20;;;5.60;99.90;;;;;;5047907;28;20199;-76
2021/11/05 04:14:14;;;;;;;0.10;0.10;;;5.70;99.90;;;;;;5049028;28;20196;-76
2021/11/05 04:16:40;;;;;;;0.13;0.13;;;5.70;99.90;;;;;;5049040;28;20220;-75
2021/11/05 04:19:06;;;;;;;1.17;1.08;;;5.80;99.90;;;;;;5049154;28;20626;-75
2021/11/05 04:21:32;;;;;;;0.10;0.10;;;5.60;99.90;;;;;;5049153;28;20173;-75
2021/11/05 04:24:01;;;;;;;0.52;0.52;;;5.60;99.90;;;;;;5049088;28;20204;-75
2021/11/05 04:26:30;;;;;;;0.22;0.22;;;5.70;99.90;;;;;;5049105;28;20177;-75
2021/11/05 04:28:56;;;;;;;0.20;0.20;;;5.70;99.90;;;;;;5047427;28;20177;-75
2021/11/05 04:31:22;;;;;;;0.35;0.35;;;5.80;99.90;;;;;;5049165;28;20165;-76
2021/11/05 04:33:48;;;;;;;0.00;0.00;;;5.80;99.90;;;;;;5048928;28;20558;-75
2021/11/05 04:36:16;;;;;;;0.10;0.10;;;5.80;99.90;;;;;;5048978;28;20168;-75
2021/11/05 04:38:41;;;;;;;0.10;0.10;;;5.90;99.90;;;;;;5049015;28;20192;-75
2021/11/05 04:41:07;;;;;;;0.10;0.10;;;5.90;99.90;;;;;;5048858;28;20607;-76
2021/11/05 04:43:33;;;;;;;0.10;0.10;;;5.90;99.90;;;;;;5048602;28;20199;-75
2021/11/05 04:45:59;;;;;;;0.45;0.45;;;5.90;99.90;;;;;;5048776;28;20252;-76
2021/11/05 04:48:25;;;;;;;0.10;0.10;;;5.90;99.90;;;;;;5047266;28;20650;-76
2021/11/05 04:50:51;;;;;;;0.10;0.10;;;5.90;99.90;;;;;;5048578;28;20216;-75
2021/11/05 04:53:18;;;;;;;0.10;0.10;;;6.00;99.90;;;;;;5048719;28;20197;-76
2021/11/05 04:55:43;;;;;;;0.40;0.40;;;6.00;99.90;;;;;;5048499;28;20225;-75
2021/11/05 04:58:09;;;;;;;1.38;1.27;;;6.00;99.90;;;;;;5048677;28;20165;-76
2021/11/05 05:00:36;;;;;;;0.10;0.10;;;5.90;99.90;;;;;;5047355;28;20166;-76
2021/11/05 05:03:03;;;;;;;0.10;0.10;;;5.90;99.90;;;;;;5048607;28;20154;-76
2021/11/05 05:05:29;;;;;;;0.70;0.70;;;6.00;99.90;;;;;;5048625;28;20167;-76
2021/11/05 05:07:56;;;;;;;0.10;0.10;;;6.00;99.90;;;;;;5048601;28;20180;-76
2021/11/05 05:10:23;;;;;;;0.10;0.10;;;6.00;99.90;;;;;;5048457;28;20158;-76
2021/11/05 05:12:50;;;;;;;0.20;0.20;;;6.10;99.90;;;;;;5047332;28;20183;-77
2021/11/05 05:15:16;;;;;;;0.10;0.10;;;6.10;99.90;;;;;;5048440;28;20232;-77
2021/11/05 05:17:43;;;;;;;1.58;1.48;;;6.10;99.90;;;;;;5048359;28;20161;-76
2021/11/05 05:20:12;;;;;;;0.10;0.10;;;6.10;99.90;;;;;;5048436;28;20157;-76
2021/11/05 05:22:38;;;;;;;0.13;0.13;;;6.10;99.90;;;;;;5048111;28;20162;-76
2021/11/05 05:25:06;;;;;;;0.10;0.10;;;6.10;99.90;;;;;;5048251;28;20603;-76
2021/11/05 05:27:33;;;;;;;0.50;0.50;;;6.10;99.90;;;;;;5046991;28;20197;-76
2021/11/05 05:29:59;;;;;;;0.10;0.10;;;6.10;99.90;;;;;;5048239;28;20161;-76
2021/11/05 05:32:25;;;;;;;0.25;0.25;;;6.10;99.90;;;;;;5048368;28;20168;-75
2021/11/05 05:34:51;;;;;;;0.20;0.20;;;6.20;99.90;;;;;;5046853;28;20212;-77
2021/11/05 05:37:17;;;;;;;0.10;0.10;;;6.20;99.90;;;;;;5047066;28;20177;-76
2021/11/05 05:39:43;;;;;;;0.20;0.20;;;6.20;99.90;;;;;;5048133;28;20162;-75
2021/11/05 05:42:09;;;;;;;0.10;0.10;;;6.10;99.90;;;;;;5050802;28;20158;-75
2021/11/05 05:44:35;;;;;;;0.10;0.10;;;6.00;99.90;;;;;;5051947;28;20247;-75
2021/11/05 05:47:02;;;;;;;1.55;1.20;;;6.20;99.90;;;;;;5051927;28;20158;-76
2021/11/05 05:49:28;;;;;;;28.60;1.63;;;6.10;99.90;;;;;;5050715;28;20204;-76
2021/11/05 05:51:54;;;;;;;0.10;0.10;;;6.20;99.90;;;;;;5051914;28;20219;-75
2021/11/05 05:54:20;;;;;;;1.00;1.00;;;6.10;99.90;;;;;;5051404;28;20225;-75
2021/11/05 05:56:46;;;;;;;0.75;0.75;;;6.10;99.90;;;;;;5051910;28;20249;-76
2021/11/05 05:59:12;;;;;;;0.10;0.10;;;6.10;99.90;;;;;;5051759;28;20153;-76
2021/11/05 06:01:38;;;;;;;0.20;0.20;;;6.10;99.90;;;;;;5051743;28;20498;-76
2021/11/05 06:04:04;;;;;;;0.38;0.38;;;6.10;99.90;;;;;;5051692;28;20193;-76
2021/11/05 06:06:31;;;;;;;0.10;0.10;;;6.30;99.90;;;;;;5050451;28;20256;-76
2021/11/05 06:08:57;;;;;;;0.20;0.20;;;6.20;99.90;;;;;;5050275;28;20180;-76
2021/11/05 06:11:24;;;;;;;0.38;0.38;;;6.20;99.90;;;;;;5049962;28;20172;-76
2021/11/05 06:13:51;;;;;;;0.52;0.52;;;6.20;99.90;;;;;;5050050;28;20224;-77
2021/11/05 06:16:17;;;;;;;6.13;1.65;;;6.20;99.90;;;;;;5051237;28;20158;-76
2021/11/05 06:18:43;;;;;;;0.20;0.20;;;6.20;99.90;;;;;;5049684;28;20594;-76
2021/11/05 06:21:09;;;;;;;4.85;2.75;;;6.20;99.90;;;;;;5051436;28;20162;-76
2021/11/05 06:23:35;;;;;;;3.40;2.22;;;6.30;99.90;;;;;;5050470;28;20207;-76
2021/11/05 06:26:01;;;;;;;0.10;0.10;;;6.50;99.90;;;;;;5049787;28;20264;-76
2021/11/05 06:28:27;;;;;;;0.10;0.10;;;6.40;99.90;;;;;;5051100;28;20185;-76
2021/11/05 06:30:53;;;;;;;0.10;0.10;;;6.40;99.90;;;;;;5049700;28;20173;-76
2021/11/05 06:33:19;;;;;;;0.03;0.03;;;6.50;99.90;;;;;;5049328;28;20201;-76
2021/11/05 06:35:46;;;;;;;1.00;0.68;;;6.40;99.90;;;;;;5049768;28;20272;-77
2021/11/05 06:38:13;;;;;;;0.00;0.00;;;6.50;99.90;;;;;;5050918;28;20326;-77
2021/11/05 06:40:41;;;;;;;0.22;0.22;;;6.50;99.90;;;;;;5050659;28;20165;-76
2021/11/05 06:43:07;;;;;;;0.47;0.47;;;6.40;99.90;;;;;;5050815;28;20268;-77
2021/11/05 06:45:34;;;;;;;0.00;0.00;;;6.50;99.90;;;;;;5050000;28;20188;-75
2021/11/05 06:48:00;;;;;;;0.08;0.08;;;6.50;99.90;;;;;;5050909;28;20158;-76
2021/11/05 06:50:26;;;;;;;0.00;0.00;;;6.50;99.90;;;;;;5049111;28;20173;-76
2021/11/05 06:52:52;;;;;;;0.40;0.40;;;6.60;99.90;;;;;;5050621;28;20162;-76
2021/11/05 06:55:17;;;;;;;0.43;0.43;;;6.70;99.90;;;;;;5050307;28;20280;-75
2021/11/05 06:57:44;;;;;;;0.10;0.10;;;6.70;99.90;;;;;;5050785;28;20173;-76
2021/11/05 07:00:13;;;;;;;0.30;0.30;;;6.70;99.90;;;;;;5050734;28;20150;-75
2021/11/05 07:02:42;;;;;;;0.80;0.80;;;6.80;99.90;;;;;;5049151;28;20235;-76
2021/11/05 07:05:13;;;;;;;0.25;0.25;;;6.80;99.90;;;;;;5050165;28;20221;-76
2021/11/05 07:07:41;;;;;;;0.50;0.30;;;6.90;99.90;;;;;;5050445;28;20170;-76
2021/11/05 07:10:08;;;;;;;0.10;0.10;;;7.00;99.90;;;;;;5050502;28;20164;-78
2021/11/05 07:12:35;;;;;;;0.65;0.45;;;7.10;99.90;;;;;;5050358;28;20168;-78
2021/11/05 07:15:02;;;;;;;2.83;0.95;;;7.20;99.90;;;;;;5050153;28;20288;-78
2021/11/05 07:17:28;;;;;;;0.10;0.10;;;7.30;99.90;;;;;;5050251;28;20164;-78
2021/11/05 07:19:54;;;;;;;3.13;0.85;;;7.30;99.90;;;;;;5049021;28;20188;-78
2021/11/05 07:22:20;;;;;;;0.20;0.20;;;7.30;99.90;;;;;;5050184;28;20158;-78
2021/11/05 07:24:46;;;;;;;0.32;0.32;;;7.40;99.90;;;;;;5049926;28;20193;-75
2021/11/05 07:27:12;;;;;;;0.80;0.75;;;7.50;99.90;;;;;;5050002;28;20192;-76
2021/11/05 07:29:41;;;;;;;0.15;0.15;;;7.70;99.90;;;;;;5048499;28;20175;-77
2021/11/05 07:32:08;;;;;;;0.10;0.10;;;7.70;99.90;;;;;;5049931;28;20153;-77
2021/11/05 07:34:36;;;;;;;0.17;0.17;;;7.90;99.90;;;;;;5048635;28;20682;-76
2021/11/05 07:37:07;;;;;;;0.10;0.10;;;8.40;99.90;;;;;;5048592;28;20176;-77
2021/11/05 07:39:33;;;;;;;0.10;0.10;;;8.50;99.90;;;;;;5048692;28;20187;-77
2021/11/05 07:41:59;;;;;;;0.00;0.00;;;8.70;99.90;;;;;;5049929;28;20166;-77
2021/11/05 07:44:25;;;;;;;0.30;0.30;;;8.70;99.90;;;;;;5049468;28;20208;-77
2021/11/05 07:46:51;;;;;;;0.10;0.10;;;8.80;99.90;;;;;;5050100;28;20170;-77
2021/11/05 07:49:17;;;;;;;0.08;0.08;;;8.80;99.90;;;;;;5048180;28;20173;-79
2021/11/05 07:51:43;;;;;;;0.85;0.85;;;8.80;99.90;;;;;;5048429;28;20181;-79
2021/11/05 07:54:09;;;;;;;0.10;0.10;;;9.10;99.90;;;;;;5049388;28;20225;-79
2021/11/05 07:56:36;;;;;;;0.00;0.00;;;9.10;99.90;;;;;;5049979;28;20256;-79
2021/11/05 07:59:04;;;;;;;0.10;0.10;;;9.10;99.90;;;;;;5048577;28;20174;-79
2021/11/05 08:01:30;;;;;;;0.00;0.00;;;9.10;99.90;;;;;;5049638;28;20188;-79
2021/11/05 08:03:56;;;;;;;0.28;0.28;;;9.40;99.90;;;;;;5047833;28;20213;-79
2021/11/05 08:06:23;;;;;;;0.30;0.30;;;9.60;99.90;;;;;;5049790;28;20210;-79
2021/11/05 08:08:49;;;;;;;0.20;0.20;;;9.70;99.90;;;;;;5049680;28;20235;-79
2021/11/05 08:11:15;;;;;;;0.25;0.25;;;10.00;99.90;;;;;;5048870;28;20574;-78
2021/11/05 08:13:41;;;;;;;0.10;0.10;;;10.40;99.90;;;;;;5049866;28;20257;-79
2021/11/05 08:16:09;;;;;;;0.38;0.38;;;10.60;99.90;;;;;;5049567;28;20189;-79
2021/11/05 08:18:35;;;;;;;0.10;0.10;;;10.70;99.90;;;;;;5049587;28;20169;-79
2021/11/05 08:21:01;;;;;;;0.03;0.03;;;10.90;99.90;;;;;;5049580;28;20162;-79
2021/11/05 08:23:28;;;;;;;0.80;0.30;;;11.00;99.90;;;;;;5049153;28;20189;-79
2021/11/05 08:25:54;;;;;;;0.10;0.10;;;11.50;99.90;;;;;;5049270;28;20172;-80
2021/11/05 08:28:21;;;;;;;0.10;0.10;;;12.60;99.90;;;;;;5048208;28;20173;-78
2021/11/05 08:30:49;;;;;;;0.00;0.00;;;14.10;99.90;;;;;;5049131;28;20188;-80
2021/11/05 08:33:16;;;;;;;0.20;0.20;;;15.90;99.90;;;;;;5048730;28;20193;-80
2021/11/05 08:35:48;;;;;;;1.20;1.10;;;16.30;99.90;;;;;;5047553;28;20268;-79
2021/11/05 08:38:15;;;;;;;0.47;0.28;;;15.80;99.90;;;;;;5064201;28;20173;-81
2021/11/05 08:40:48;;;;;;;0.10;0.10;;;14.40;99.90;;;;;;5048847;28;20196;-82
2021/11/05 08:43:17;;;;;;;0.55;0.55;;;13.60;99.90;;;;;;5048497;28;20185;-81
2021/11/05 08:45:43;;;;;;;0.10;0.10;;;13.10;99.90;;;;;;5048893;28;20165;-82
2021/11/05 08:48:09;;;;;;;0.25;0.25;;;12.70;99.90;;;;;;5047506;28;20204;-82
2021/11/05 08:50:35;;;;;;;0.22;0.22;;;12.30;99.90;;;;;;5048813;28;20170;-78
2021/11/05 08:53:03;;;;;;;0.10;0.10;;;12.10;99.90;;;;;;5048645;28;20188;-81
2021/11/05 08:55:30;;;;;;;0.10;0.10;;;11.80;99.90;;;;;;5063959;28;20228;-78
2021/11/05 08:57:56;;;;;;;0.32;0.32;;;11.90;99.90;;;;;;5047425;28;20165;-79
2021/11/05 09:00:26;;;;;;;0.13;0.13;;;11.30;99.90;;;;;;5048598;28;20219;-78
2021/11/05 09:02:54;;;;;;;0.10;0.10;;;10.20;99.90;;;;;;5048533;28;20176;-77
2021/11/05 09:05:20;;;;;;;0.00;0.00;;;9.50;99.90;;;;;;5047494;28;20176;-78
2021/11/05 09:07:47;;;;;;;0.80;0.80;;;9.00;99.90;;;;;;5047285;28;20183;-77
2021/11/05 09:10:14;;;;;;;0.60;0.60;;;8.60;99.90;;;;;;5048559;28;20170;-78
2021/11/05 09:12:41;;;;;;;0.20;0.20;;;8.40;99.90;;;;;;5048497;28;20221;-77
2021/11/05 09:15:10;;;;;;;0.13;0.13;;;8.20;99.90;;;;;;5048403;28;20208;-78
2021/11/05 09:17:41;;;;;;;0.20;0.20;;;8.00;99.90;;;;;;5050366;28;20236;-78
2021/11/05 09:20:10;;;;;;;0.82;0.82;;;8.00;99.90;;;;;;5052535;28;20164;-80
2021/11/05 09:22:36;;;;;;;0.20;0.20;;;8.00;99.90;;;;;;5057148;28;20184;-80
2021/11/05 09:25:06;;;;;;;0.50;0.50;;;8.00;99.90;;;;;;5063988;28;20189;-81
2021/11/05 09:27:32;;;;;;;2.72;1.10;;;8.00;99.90;;;;;;5056368;28;20229;-77
2021/11/05 09:29:58;;;;;;;0.35;0.35;;;8.10;99.90;;;;;;5052856;28;20154;-76
2021/11/05 09:32:24;;;;;;;0.00;0.00;;;8.10;99.90;;;;;;5070749;28;20215;-78
2021/11/05 09:34:51;;;;;;;0.10;0.10;;;8.20;99.90;;;;;;5071766;28;20200;-77
2021/11/05 09:37:18;;;;;;;1.08;1.08;;;8.30;99.90;;;;;;5071978;28;20161;-77
2021/11/05 09:39:44;;;;;;;0.45;0.45;;;8.20;99.90;;;;;;5059356;28;20176;-78
2021/11/05 09:42:10;;;;;;;0.00;0.00;;;8.10;99.90;;;;;;5051977;28;20199;-77
2021/11/05 09:44:38;;;;;;;0.10;0.10;;;8.20;99.90;;;;;;5050420;28;20193;-77
2021/11/05 09:47:05;;;;;;;0.80;0.45;;;8.30;99.90;;;;;;5051909;28;20170;-78
2021/11/05 09:49:33;;;;;;;0.10;0.10;;;8.30;99.90;;;;;;5051860;28;20188;-76
2021/11/05 09:52:01;;;;;;;0.20;0.20;;;8.10;99.90;;;;;;5050744;28;20540;-77
2021/11/05 09:54:30;;;;;;;0.40;0.40;;;8.20;99.90;;;;;;5050244;28;20240;-78
2021/11/05 09:56:57;;;;;;;0.65;0.57;;;8.10;99.90;;;;;;5063765;28;20195;-77
2021/11/05 09:59:24;;;;;;;0.63;0.63;;;8.30;99.90;;;;;;5062732;28;20244;-78
2021/11/05 10:01:51;;;;;;;0.15;0.15;;;8.50;99.90;;;;;;5058804;28;20230;-77
2021/11/05 10:04:16;;;;;;;0.15;0.15;;;8.70;99.90;;;;;;5051429;28;20188;-77
2021/11/05 10:07:02;;;;;;;0.05;0.05;;;8.70;99.90;;;;;;5053441;28;20200;-76
2021/11/05 10:09:40;;;;;;;0.03;0.03;;;8.70;99.90;;;;;;5051408;28;20199;-78
2021/11/05 10:12:15;;;;;;;1.20;1.17;;;9.10;99.90;;;;;;5050007;28;20234;-76
2021/11/05 10:14:42;;;;;;;0.10;0.10;;;9.20;99.90;;;;;;5049941;28;20209;-78
2021/11/05 10:17:12;;;;;;;0.15;0.15;;;9.30;99.90;;;;;;5064252;28;20194;-80
2021/11/05 10:19:58;;;;;;;0.10;0.10;;;9.50;99.90;;;;;;5069875;28;20230;-81
2021/11/05 10:22:43;;;;;;;3.40;1.45;;;9.60;99.90;;;;;;5070237;28;20179;-76
2021/11/05 10:25:21;;;;;;;0.10;0.10;;;9.60;99.90;;;;;;5071168;28;20195;-76
2021/11/05 10:27:59;;;;;;;4.78;1.35;;;9.60;99.90;;;;;;5070993;28;20196;-77
2021/11/05 10:30:25;;;;;;;0.10;0.10;;;9.60;99.90;;;;;;5071153;28;20164;-78
2021/11/05 10:33:01;;;;;;;0.20;0.20;;;9.50;99.90;;;;;;5071764;28;20165;-77
2021/11/05 10:35:27;;;;;;;0.15;0.15;;;9.60;99.90;;;;;;5069846;28;20195;-76
2021/11/05 10:38:01;;;;;;;0.10;0.10;;;9.70;99.90;;;;;;5070892;28;20191;-77
2021/11/05 10:40:55;;;;;;;0.20;0.20;;;9.80;99.90;;;;;;5070982;28;20223;-77
2021/11/05 10:43:46;;;;;;;1.38;1.27;;;9.80;99.90;;;;;;5070229;28;20212;-78
2021/11/05 10:46:32;;;;;;;0.00;0.00;;;9.70;99.90;;;;;;5070818;28;20510;-78
2021/11/05 10:49:06;;;;;;;0.10;0.10;;;9.80;99.90;;;;;;5069514;28;20188;-78
2021/11/05 10:51:34;;;;;;;0.43;0.32;;;10.00;99.90;;;;;;5068243;28;20156;-79
2021/11/05 10:54:01;;;;;;;0.08;0.08;;;10.20;99.90;;;;;;5057105;28;20704;-78
2021/11/05 10:56:30;;;;;;;0.20;0.20;;;10.20;99.90;;;;;;5057093;28;20156;-78
2021/11/05 10:59:08;;;;;;;0.10;0.10;;;10.00;99.90;;;;;;5058088;28;20166;-77
2021/11/05 11:01:42;;;;;;;0.73;0.32;;;9.70;99.90;;;;;;5050499;28;20172;-78
2021/11/05 11:04:10;;;;;;;0.15;0.15;;;9.30;99.90;;;;;;5050094;28;20247;-77
2021/11/05 11:06:43;;;;;;;0.40;0.40;;;9.30;99.90;;;;;;5048859;28;20176;-78
2021/11/05 11:09:11;;;;;;;0.00;0.00;;;9.30;99.90;;;;;;5048508;28;20166;-78
2021/11/05 11:11:39;;;;;;;0.80;0.80;;;9.20;99.90;;;;;;5066247;28;20306;-78
2021/11/05 11:14:08;;;;;;;0.45;0.45;;;9.20;99.90;;;;;;5069707;28;20185;-77
2021/11/05 11:16:37;;;;;;;0.00;0.00;;;9.40;99.90;;;;;;5069811;28;20153;-78
2021/11/05 11:19:08;;;;;;;0.10;0.10;;;9.20;99.90;;;;;;5069740;28;20157;-78
2021/11/05 11:21:37;;;;;;;0.10;0.10;;;9.20;99.90;;;;;;5070050;28;20251;-78
2021/11/05 11:24:06;;;;;;;0.47;0.47;;;9.10;99.90;;;;;;5066618;28;20200;-78
2021/11/05 11:26:34;;;;;;;0.45;0.45;;;9.10;99.90;;;;;;5068788;28;20169;-77
2021/11/05 11:29:01;;;;;;;0.15;0.15;;;9.20;99.90;;;;;;5069474;28;20245;-78
2021/11/05 11:31:27;;;;;;;0.57;0.57;;;9.40;99.90;;;;;;5068314;28;20175;-78
2021/11/05 11:33:54;;;;;;;0.10;0.10;;;9.40;99.90;;;;;;5069784;28;20281;-77
2021/11/05 11:36:21;;;;;;;0.05;0.05;;;9.30;99.90;;;;;;5068390;28;20287;-76
2021/11/05 11:38:52;;;;;;;0.10;0.10;;;9.50;99.90;;;;;;5055838;28;20173;-76
2021/11/05 11:41:20;;;;;;;0.00;0.00;;;9.50;99.90;;;;;;5048460;28;20161;-76
2021/11/05 11:43:46;;;;;;;0.43;0.43;;;9.60;99.90;;;;;;5049810;28;20165;-75
2021/11/05 11:46:13;;;;;;;0.10;0.10;;;9.60;99.90;;;;;;5048300;28;20194;-76
2021/11/05 11:48:54;;;;;;;15.43;0.52;;;9.90;99.90;;;;;;5048270;28;20189;-76
2021/11/05 11:51:38;;;;;;;0.10;0.10;;;9.90;99.90;;;;;;5047564;28;20180;-76
2021/11/05 11:54:13;;;;;;;0.10;0.10;;;10.00;99.90;;;;;;5046932;28;20221;-76
2021/11/05 11:56:42;;;;;;;0.10;0.10;;;10.30;99.90;;;;;;5048238;28;20176;-76
2021/11/05 11:59:14;;;;;;;0.10;0.10;;;10.50;99.90;;;;;;5048629;28;20221;-76
2021/11/05 12:01:44;;;;;;;0.00;0.00;;;10.90;99.90;;;;;;5047427;28;20188;-75
2021/11/05 12:04:16;;;;;;;0.20;0.20;;;11.50;99.90;;;;;;5048519;28;20197;-76
2021/11/05 12:06:53;;;;;;;0.00;0.00;;;11.90;99.90;;;;;;5048911;28;20153;-76
2021/11/05 12:09:36;;;;;;;0.10;0.10;;;11.80;99.90;;;;;;5048121;28;20657;-77
2021/11/05 12:12:21;;;;;;;0.25;0.20;;;11.40;99.90;;;;;;5049018;28;20580;-77
2021/11/05 12:14:59;;;;;;;0.00;0.00;;;10.80;99.90;;;;;;5049044;28;20193;-77
2021/11/05 12:17:29;;;;;;;0.00;0.00;;;10.30;99.90;;;;;;5047863;28;20573;-78
2021/11/05 12:20:02;;;;;;;0.57;0.57;;;10.10;99.90;;;;;;5049096;28;20690;-77
2021/11/05 12:22:29;;;;;;;0.10;0.10;;;10.10;99.90;;;;;;5047674;28;20258;-73
2021/11/05 12:25:21;;;;;;;0.52;0.52;;;10.10;99.90;;;;;;5068685;28;20156;-73
2021/11/05 12:28:17;;;;;;;0.13;0.13;;;10.30;99.90;;;;;;5067587;28;20169;-73
2021/11/05 12:30:44;;;;;;;0.30;0.30;;;10.50;99.90;;;;;;5053788;28;20209;-73
2021/11/05 12:33:27;;;;;;;3.38;1.05;;;10.30;99.90;;;;;;5048863;28;20166;-72
2021/11/05 12:35:53;;;;;;;0.57;0.57;;;10.40;99.90;;;;;;5047446;28;20252;-74
2021/11/05 12:38:20;;;;;;;2.40;1.30;;;10.40;99.90;;;;;;5048914;28;20168;-73
2021/11/05 12:41:11;;;;;;;0.20;0.20;;;10.40;99.90;;;;;;5048977;28;20193;-78
2021/11/05 12:43:39;;;;;;;0.00;0.00;;;10.30;99.90;;;;;;5048790;28;20172;-78
2021/11/05 12:46:08;;;;;;;0.00;0.00;;;10.30;99.90;;;;;;5048850;28;20162;-78
2021/11/05 12:48:37;;;;;;;0.50;0.50;;;10.20;99.90;;;;;;5047044;28;20173;-77
2021/11/05 12:51:27;;;;;;;0.17;0.17;;;10.30;99.90;;;;;;5048585;28;20205;-78
2021/11/05 12:54:08;;;;;;;2.08;0.82;;;10.40;99.90;;;;;;5047021;28;20189;-78
2021/11/05 12:56:37;;;;;;;0.10;0.10;;;10.50;99.90;;;;;;5047360;28;20193;-78
2021/11/05 12:59:09;;;;;;;0.03;0.03;;;10.70;99.90;;;;;;5048332;28;20173;-77
2021/11/05 13:01:36;;;;;;;0.15;0.15;;;10.80;99.90;;;;;;5047041;28;20203;-77